sensor_id;sensor_type;location;lat;lon;timestamp;temperature;humidity
79049;DHT22;68680;50.764;6.120;2023-09-19T00:00:57;15.20;99.90
79049;DHT22;68680;50.764;6.120;2023-09-19T00:03:24;15.20;99.90
79049;DHT22;68680;50.764;6.120;2023-09-19T00:05:50;15.20;99.90
79049;DHT22;68680;50.764;6.120;2023-09-19T00:08:16;15.20;99.90
79049;DHT22;68680;50.764;6.120;2023-09-19T00:10:42;15.20;99.90
79049;DHT22;68680;50.764;6.120;2023-09-19T00:13:09;15.10;99.90
79049;DHT22;68680;50.764;6.120;2023-09-19T00:15:37;15.10;99.90
79049;DHT22;68680;50.764;6.120;2023-09-19T00:18:05;15.10;99.90
79049;DHT22;68680;50.764;6.120;2023-09-19T00:20:34;15.10;99.90
79049;DHT22;68680;50.764;6.120;2023-09-19T00:23:01;15.10;99.90
79049;DHT22;68680;50.764;6.120;2023-09-19T00:25:27;15.20;99.90
79049;DHT22;68680;50.764;6.120;2023-09-19T00:27:54;15.20;99.90
79049;DHT22;68680;50.764;6.120;2023-09-19T00:30:20;15.20;99.90
79049;DHT22;68680;50.764;6.120;2023-09-19T00:32:46;15.20;99.90
79049;DHT22;68680;50.764;6.120;2023-09-19T00:35:13;15.20;99.90
79049;DHT22;68680;50.764;6.120;2023-09-19T00:37:41;15.20;99.90
79049;DHT22;68680;50.764;6.120;2023-09-19T00:40:08;15.10;99.90
79049;DHT22;68680;50.764;6.120;2023-09-19T00:42:35;15.10;99.90
79049;DHT22;68680;50.764;6.120;2023-09-19T00:45:01;15.10;99.90
79049;DHT22;68680;50.764;6.120;2023-09-19T00:47:28;15.10;99.90
79049;DHT22;68680;50.764;6.120;2023-09-19T00:49:54;15.10;99.90
79049;DHT22;68680;50.764;6.120;2023-09-19T00:52:20;15.00;99.90
79049;DHT22;68680;50.764;6.120;2023-09-19T00:54:47;15.00;99.90
79049;DHT22;68680;50.764;6.120;2023-09-19T00:57:14;15.00;99.90
79049;DHT22;68680;50.764;6.120;2023-09-19T00:59:40;14.90;99.90
79049;DHT22;68680;50.764;6.120;2023-09-19T01:02:06;14.80;99.90
79049;DHT22;68680;50.764;6.120;2023-09-19T01:04:32;14.80;99.90
79049;DHT22;68680;50.764;6.120;2023-09-19T01:06:58;14.80;99.90
79049;DHT22;68680;50.764;6.120;2023-09-19T01:09:24;14.70;99.90
79049;DHT22;68680;50.764;6.120;2023-09-19T01:11:53;14.70;99.90
79049;DHT22;68680;50.764;6.120;2023-09-19T01:14:31;14.60;99.90
79049;DHT22;68680;50.764;6.120;2023-09-19T01:17:07;14.60;99.90
79049;DHT22;68680;50.764;6.120;2023-09-19T01:20:11;14.60;99.90
79049;DHT22;68680;50.764;6.120;2023-09-19T01:22:56;14.50;99.90
79049;DHT22;68680;50.764;6.120;2023-09-19T01:25:57;14.50;99.90
79049;DHT22;68680;50.764;6.120;2023-09-19T01:28:47;14.50;99.90
79049;DHT22;68680;50.764;6.120;2023-09-19T01:31:21;14.50;99.90
79049;DHT22;68680;50.764;6.120;2023-09-19T01:33:58;14.40;99.90
79049;DHT22;68680;50.764;6.120;2023-09-19T01:36:27;14.30;99.90
79049;DHT22;68680;50.764;6.120;2023-09-19T01:38:54;14.30;99.90
79049;DHT22;68680;50.764;6.120;2023-09-19T01:41:26;14.30;99.90
79049;DHT22;68680;50.764;6.120;2023-09-19T01:44:06;14.20;99.90
79049;DHT22;68680;50.764;6.120;2023-09-19T01:46:41;14.20;99.90
79049;DHT22;68680;50.764;6.120;2023-09-19T01:49:17;14.20;99.90
79049;DHT22;68680;50.764;6.120;2023-09-19T01:52:09;14.20;99.90
79049;DHT22;68680;50.764;6.120;2023-09-19T01:54:41;14.10;99.90
79049;DHT22;68680;50.764;6.120;2023-09-19T01:57:17;14.10;99.90
79049;DHT22;68680;50.764;6.120;2023-09-19T01:59:52;14.10;99.90
79049;DHT22;68680;50.764;6.120;2023-09-19T02:02:25;14.10;99.90
79049;DHT22;68680;50.764;6.120;2023-09-19T02:04:54;14.10;99.90
79049;DHT22;68680;50.764;6.120;2023-09-19T02:07:20;14.00;99.90
79049;DHT22;68680;50.764;6.120;2023-09-19T02:09:47;14.10;99.90
79049;DHT22;68680;50.764;6.120;2023-09-19T02:12:13;14.10;99.90
79049;DHT22;68680;50.764;6.120;2023-09-19T02:14:38;14.10;99.90
79049;DHT22;68680;50.764;6.120;2023-09-19T02:17:04;14.10;99.90
79049;DHT22;68680;50.764;6.120;2023-09-19T02:19:31;14.10;99.90
79049;DHT22;68680;50.764;6.120;2023-09-19T02:21:58;14.10;99.90
79049;DHT22;68680;50.764;6.120;2023-09-19T02:24:23;14.10;99.90
79049;DHT22;68680;50.764;6.120;2023-09-19T02:26:49;14.00;99.90
79049;DHT22;68680;50.764;6.120;2023-09-19T02:29:15;14.00;99.90
79049;DHT22;68680;50.764;6.120;2023-09-19T02:31:41;14.00;99.90
79049;DHT22;68680;50.764;6.120;2023-09-19T02:34:07;14.10;99.90
79049;DHT22;68680;50.764;6.120;2023-09-19T02:36:34;14.00;99.90
79049;DHT22;68680;50.764;6.120;2023-09-19T02:39:00;14.00;99.90
79049;DHT22;68680;50.764;6.120;2023-09-19T02:41:25;14.00;99.90
79049;DHT22;68680;50.764;6.120;2023-09-19T02:43:51;14.00;99.90
79049;DHT22;68680;50.764;6.120;2023-09-19T02:46:17;14.00;99.90
79049;DHT22;68680;50.764;6.120;2023-09-19T02:48:43;14.00;99.90
79049;DHT22;68680;50.764;6.120;2023-09-19T02:51:09;14.00;99.90
79049;DHT22;68680;50.764;6.120;2023-09-19T02:53:36;14.00;99.90
79049;DHT22;68680;50.764;6.120;2023-09-19T02:56:02;13.90;99.90
79049;DHT22;68680;50.764;6.120;2023-09-19T02:58:27;13.90;99.90
79049;DHT22;68680;50.764;6.120;2023-09-19T03:00:53;13.90;99.90
79049;DHT22;68680;50.764;6.120;2023-09-19T03:03:19;13.90;99.90
79049;DHT22;68680;50.764;6.120;2023-09-19T03:05:45;13.90;99.90
79049;DHT22;68680;50.764;6.120;2023-09-19T03:08:11;13.90;99.90
79049;DHT22;68680;50.764;6.120;2023-09-19T03:10:38;13.90;99.90
79049;DHT22;68680;50.764;6.120;2023-09-19T03:13:03;13.90;99.90
79049;DHT22;68680;50.764;6.120;2023-09-19T03:15:29;13.80;99.90
79049;DHT22;68680;50.764;6.120;2023-09-19T03:17:55;13.80;99.90
79049;DHT22;68680;50.764;6.120;2023-09-19T03:20:21;13.80;99.90
79049;DHT22;68680;50.764;6.120;2023-09-19T03:22:47;13.80;99.90
79049;DHT22;68680;50.764;6.120;2023-09-19T03:25:12;13.80;99.90
79049;DHT22;68680;50.764;6.120;2023-09-19T03:27:40;13.70;99.90
79049;DHT22;68680;50.764;6.120;2023-09-19T03:30:07;13.70;99.90
79049;DHT22;68680;50.764;6.120;2023-09-19T03:32:33;13.70;99.90
79049;DHT22;68680;50.764;6.120;2023-09-19T03:34:59;13.70;99.90
79049;DHT22;68680;50.764;6.120;2023-09-19T03:37:25;13.70;99.90
79049;DHT22;68680;50.764;6.120;2023-09-19T03:39:51;13.70;99.90
79049;DHT22;68680;50.764;6.120;2023-09-19T03:42:16;13.70;99.90
79049;DHT22;68680;50.764;6.120;2023-09-19T03:44:43;13.60;99.90
79049;DHT22;68680;50.764;6.120;2023-09-19T03:47:09;13.70;99.90
79049;DHT22;68680;50.764;6.120;2023-09-19T03:49:35;13.60;99.90
79049;DHT22;68680;50.764;6.120;2023-09-19T03:52:01;13.60;99.90
79049;DHT22;68680;50.764;6.120;2023-09-19T03:54:26;13.60;99.90
79049;DHT22;68680;50.764;6.120;2023-09-19T03:56:52;13.60;99.90
79049;DHT22;68680;50.764;6.120;2023-09-19T03:59:18;13.60;99.90
79049;DHT22;68680;50.764;6.120;2023-09-19T04:01:45;13.60;99.90
79049;DHT22;68680;50.764;6.120;2023-09-19T04:04:11;13.60;99.90
79049;DHT22;68680;50.764;6.120;2023-09-19T04:06:37;13.60;99.90
79049;DHT22;68680;50.764;6.120;2023-09-19T04:09:03;13.50;99.90
79049;DHT22;68680;50.764;6.120;2023-09-19T04:11:29;13.50;99.90
79049;DHT22;68680;50.764;6.120;2023-09-19T04:13:55;13.50;99.90
79049;DHT22;68680;50.764;6.120;2023-09-19T04:16:21;13.50;99.90
79049;DHT22;68680;50.764;6.120;2023-09-19T04:18:48;13.60;99.90
79049;DHT22;68680;50.764;6.120;2023-09-19T04:21:14;13.50;99.90
79049;DHT22;68680;50.764;6.120;2023-09-19T04:23:40;13.50;99.90
79049;DHT22;68680;50.764;6.120;2023-09-19T04:26:05;13.50;99.90
79049;DHT22;68680;50.764;6.120;2023-09-19T04:28:31;13.50;99.90
79049;DHT22;68680;50.764;6.120;2023-09-19T04:30:57;13.50;99.90
79049;DHT22;68680;50.764;6.120;2023-09-19T04:33:23;13.50;99.90
79049;DHT22;68680;50.764;6.120;2023-09-19T04:35:50;13.40;99.90
79049;DHT22;68680;50.764;6.120;2023-09-19T04:38:17;13.40;99.90
79049;DHT22;68680;50.764;6.120;2023-09-19T04:40:43;13.40;99.90
79049;DHT22;68680;50.764;6.120;2023-09-19T04:43:09;13.40;99.90
79049;DHT22;68680;50.764;6.120;2023-09-19T04:45:34;13.40;99.90
79049;DHT22;68680;50.764;6.120;2023-09-19T04:48:00;13.40;99.90
79049;DHT22;68680;50.764;6.120;2023-09-19T04:50:26;13.40;99.90
79049;DHT22;68680;50.764;6.120;2023-09-19T04:52:53;13.40;99.90
79049;DHT22;68680;50.764;6.120;2023-09-19T04:55:19;13.40;99.90
79049;DHT22;68680;50.764;6.120;2023-09-19T04:57:46;13.40;99.90
79049;DHT22;68680;50.764;6.120;2023-09-19T05:00:13;13.40;99.90
79049;DHT22;68680;50.764;6.120;2023-09-19T05:02:40;13.40;99.90
79049;DHT22;68680;50.764;6.120;2023-09-19T05:05:07;13.40;99.90
79049;DHT22;68680;50.764;6.120;2023-09-19T05:07:33;13.40;99.90
79049;DHT22;68680;50.764;6.120;2023-09-19T05:10:01;13.40;99.90
79049;DHT22;68680;50.764;6.120;2023-09-19T05:12:27;13.40;99.90
79049;DHT22;68680;50.764;6.120;2023-09-19T05:14:52;13.40;99.90
79049;DHT22;68680;50.764;6.120;2023-09-19T05:17:18;13.40;99.90
79049;DHT22;68680;50.764;6.120;2023-09-19T05:19:44;13.40;99.90
79049;DHT22;68680;50.764;6.120;2023-09-19T05:22:10;13.40;99.90
79049;DHT22;68680;50.764;6.120;2023-09-19T05:24:36;13.40;99.90
79049;DHT22;68680;50.764;6.120;2023-09-19T05:27:03;13.30;99.90
79049;DHT22;68680;50.764;6.120;2023-09-19T05:29:29;13.40;99.90
79049;DHT22;68680;50.764;6.120;2023-09-19T05:31:55;13.40;99.90
79049;DHT22;68680;50.764;6.120;2023-09-19T05:34:21;13.30;99.90
79049;DHT22;68680;50.764;6.120;2023-09-19T05:36:46;13.30;99.90
79049;DHT22;68680;50.764;6.120;2023-09-19T05:39:12;13.30;99.90
79049;DHT22;68680;50.764;6.120;2023-09-19T05:41:38;13.30;99.90
79049;DHT22;68680;50.764;6.120;2023-09-19T05:44:05;13.30;99.90
79049;DHT22;68680;50.764;6.120;2023-09-19T05:46:31;13.30;99.90
79049;DHT22;68680;50.764;6.120;2023-09-19T05:48:57;13.30;99.90
79049;DHT22;68680;50.764;6.120;2023-09-19T05:51:23;13.30;99.90
79049;DHT22;68680;50.764;6.120;2023-09-19T05:53:48;13.40;99.90
79049;DHT22;68680;50.764;6.120;2023-09-19T05:56:14;13.40;99.90
79049;DHT22;68680;50.764;6.120;2023-09-19T05:58:40;13.30;99.90
79049;DHT22;68680;50.764;6.120;2023-09-19T06:01:07;13.30;99.90
79049;DHT22;68680;50.764;6.120;2023-09-19T06:03:33;13.40;99.90
79049;DHT22;68680;50.764;6.120;2023-09-19T06:05:59;13.40;99.90
79049;DHT22;68680;50.764;6.120;2023-09-19T06:08:25;13.40;99.90
79049;DHT22;68680;50.764;6.120;2023-09-19T06:10:50;13.50;99.90
79049;DHT22;68680;50.764;6.120;2023-09-19T06:13:16;13.60;99.90
79049;DHT22;68680;50.764;6.120;2023-09-19T06:15:42;13.60;99.90
79049;DHT22;68680;50.764;6.120;2023-09-19T06:18:11;13.60;99.90
79049;DHT22;68680;50.764;6.120;2023-09-19T06:20:37;13.60;99.90
79049;DHT22;68680;50.764;6.120;2023-09-19T06:23:03;13.60;99.90
79049;DHT22;68680;50.764;6.120;2023-09-19T06:25:29;13.70;99.90
79049;DHT22;68680;50.764;6.120;2023-09-19T06:27:55;13.70;99.90
79049;DHT22;68680;50.764;6.120;2023-09-19T06:30:21;13.70;99.90
79049;DHT22;68680;50.764;6.120;2023-09-19T06:32:47;13.80;99.90
79049;DHT22;68680;50.764;6.120;2023-09-19T06:35:15;13.80;99.90
79049;DHT22;68680;50.764;6.120;2023-09-19T06:37:42;13.90;99.90
79049;DHT22;68680;50.764;6.120;2023-09-19T06:40:09;13.90;99.90
79049;DHT22;68680;50.764;6.120;2023-09-19T06:42:36;13.90;99.90
79049;DHT22;68680;50.764;6.120;2023-09-19T06:45:02;13.90;99.90
79049;DHT22;68680;50.764;6.120;2023-09-19T06:47:28;14.00;99.90
79049;DHT22;68680;50.764;6.120;2023-09-19T06:49:54;14.10;99.90
79049;DHT22;68680;50.764;6.120;2023-09-19T06:52:21;14.00;99.90
79049;DHT22;68680;50.764;6.120;2023-09-19T06:54:48;14.10;99.90
79049;DHT22;68680;50.764;6.120;2023-09-19T06:57:14;14.00;99.90
79049;DHT22;68680;50.764;6.120;2023-09-19T06:59:39;14.00;99.90
79049;DHT22;68680;50.764;6.120;2023-09-19T07:02:06;14.10;99.90
79049;DHT22;68680;50.764;6.120;2023-09-19T07:04:32;14.20;99.90
79049;DHT22;68680;50.764;6.120;2023-09-19T07:06:57;14.20;99.90
79049;DHT22;68680;50.764;6.120;2023-09-19T07:09:24;14.20;99.90
79049;DHT22;68680;50.764;6.120;2023-09-19T07:11:50;14.30;99.90
79049;DHT22;68680;50.764;6.120;2023-09-19T07:14:16;14.20;99.90
79049;DHT22;68680;50.764;6.120;2023-09-19T07:16:42;14.30;99.90
79049;DHT22;68680;50.764;6.120;2023-09-19T07:19:07;14.30;99.90
79049;DHT22;68680;50.764;6.120;2023-09-19T07:21:33;14.40;99.90
79049;DHT22;68680;50.764;6.120;2023-09-19T07:23:59;14.40;99.90
79049;DHT22;68680;50.764;6.120;2023-09-19T07:26:27;14.40;99.90
79049;DHT22;68680;50.764;6.120;2023-09-19T07:28:52;14.50;99.90
79049;DHT22;68680;50.764;6.120;2023-09-19T07:31:18;14.50;99.90
79049;DHT22;68680;50.764;6.120;2023-09-19T07:33:44;14.60;99.90
79049;DHT22;68680;50.764;6.120;2023-09-19T07:36:10;14.60;99.90
79049;DHT22;68680;50.764;6.120;2023-09-19T07:38:36;14.70;99.90
79049;DHT22;68680;50.764;6.120;2023-09-19T07:41:02;14.70;99.90
79049;DHT22;68680;50.764;6.120;2023-09-19T07:43:29;14.80;99.90
79049;DHT22;68680;50.764;6.120;2023-09-19T07:45:55;14.80;99.90
79049;DHT22;68680;50.764;6.120;2023-09-19T07:48:21;14.80;99.90
79049;DHT22;68680;50.764;6.120;2023-09-19T07:50:46;14.80;99.90
79049;DHT22;68680;50.764;6.120;2023-09-19T07:53:12;14.80;99.90
79049;DHT22;68680;50.764;6.120;2023-09-19T07:55:38;14.80;99.90
79049;DHT22;68680;50.764;6.120;2023-09-19T07:58:04;14.80;99.90
79049;DHT22;68680;50.764;6.120;2023-09-19T08:00:31;14.80;99.90
79049;DHT22;68680;50.764;6.120;2023-09-19T08:02:56;14.90;99.90
79049;DHT22;68680;50.764;6.120;2023-09-19T08:05:22;14.90;99.90
79049;DHT22;68680;50.764;6.120;2023-09-19T08:07:48;15.00;99.90
79049;DHT22;68680;50.764;6.120;2023-09-19T08:10:14;15.00;99.90
79049;DHT22;68680;50.764;6.120;2023-09-19T08:12:41;15.10;99.90
79049;DHT22;68680;50.764;6.120;2023-09-19T08:15:08;15.10;99.90
79049;DHT22;68680;50.764;6.120;2023-09-19T08:17:35;15.20;99.90
79049;DHT22;68680;50.764;6.120;2023-09-19T08:20:01;15.20;99.90
79049;DHT22;68680;50.764;6.120;2023-09-19T08:22:27;15.10;99.90
79049;DHT22;68680;50.764;6.120;2023-09-19T08:24:53;15.20;99.90
79049;DHT22;68680;50.764;6.120;2023-09-19T08:27:19;15.20;99.90
79049;DHT22;68680;50.764;6.120;2023-09-19T08:29:44;15.30;99.90
79049;DHT22;68680;50.764;6.120;2023-09-19T08:32:10;15.30;99.90
79049;DHT22;68680;50.764;6.120;2023-09-19T08:34:37;15.30;99.90
79049;DHT22;68680;50.764;6.120;2023-09-19T08:37:03;15.50;99.90
79049;DHT22;68680;50.764;6.120;2023-09-19T08:39:30;15.50;99.90
79049;DHT22;68680;50.764;6.120;2023-09-19T08:41:57;15.70;99.90
79049;DHT22;68680;50.764;6.120;2023-09-19T08:44:23;15.70;99.90
79049;DHT22;68680;50.764;6.120;2023-09-19T08:46:50;15.70;99.90
79049;DHT22;68680;50.764;6.120;2023-09-19T08:49:24;15.70;99.90
79049;DHT22;68680;50.764;6.120;2023-09-19T08:52:04;15.70;99.90
79049;DHT22;68680;50.764;6.120;2023-09-19T08:54:37;15.70;99.90
79049;DHT22;68680;50.764;6.120;2023-09-19T08:57:07;15.80;99.90
79049;DHT22;68680;50.764;6.120;2023-09-19T08:59:33;15.90;99.90
79049;DHT22;68680;50.764;6.120;2023-09-19T09:02:00;16.00;99.90
79049;DHT22;68680;50.764;6.120;2023-09-19T09:04:27;16.10;99.90
79049;DHT22;68680;50.764;6.120;2023-09-19T09:06:53;16.20;99.90
79049;DHT22;68680;50.764;6.120;2023-09-19T09:09:22;16.20;99.90
79049;DHT22;68680;50.764;6.120;2023-09-19T09:11:48;16.20;99.90
79049;DHT22;68680;50.764;6.120;2023-09-19T09:14:14;16.20;99.90
79049;DHT22;68680;50.764;6.120;2023-09-19T09:16:40;16.20;99.90
79049;DHT22;68680;50.764;6.120;2023-09-19T09:19:06;16.10;99.90
79049;DHT22;68680;50.764;6.120;2023-09-19T09:21:32;16.20;99.90
79049;DHT22;68680;50.764;6.120;2023-09-19T09:23:57;16.30;99.90
79049;DHT22;68680;50.764;6.120;2023-09-19T09:26:42;16.20;99.90
79049;DHT22;68680;50.764;6.120;2023-09-19T09:29:08;16.10;99.90
79049;DHT22;68680;50.764;6.120;2023-09-19T09:31:34;16.20;99.90
79049;DHT22;68680;50.764;6.120;2023-09-19T09:34:00;16.30;99.90
79049;DHT22;68680;50.764;6.120;2023-09-19T09:36:35;16.40;99.90
79049;DHT22;68680;50.764;6.120;2023-09-19T09:39:02;16.50;99.20
79049;DHT22;68680;50.764;6.120;2023-09-19T09:41:36;16.40;98.20
79049;DHT22;68680;50.764;6.120;2023-09-19T09:44:12;16.40;98.20
79049;DHT22;68680;50.764;6.120;2023-09-19T09:46:42;16.50;98.30
79049;DHT22;68680;50.764;6.120;2023-09-19T09:49:10;16.50;98.20
79049;DHT22;68680;50.764;6.120;2023-09-19T09:51:36;16.60;97.80
79049;DHT22;68680;50.764;6.120;2023-09-19T09:54:10;16.60;98.00
79049;DHT22;68680;50.764;6.120;2023-09-19T09:56:52;16.70;98.00
79049;DHT22;68680;50.764;6.120;2023-09-19T09:59:20;16.70;97.60
79049;DHT22;68680;50.764;6.120;2023-09-19T10:01:46;16.80;96.70
79049;DHT22;68680;50.764;6.120;2023-09-19T10:04:27;16.70;95.60
79049;DHT22;68680;50.764;6.120;2023-09-19T10:06:53;16.80;97.20
79049;DHT22;68680;50.764;6.120;2023-09-19T10:09:19;16.80;96.40
79049;DHT22;68680;50.764;6.120;2023-09-19T10:11:46;16.80;95.90
79049;DHT22;68680;50.764;6.120;2023-09-19T10:14:15;16.90;96.70
79049;DHT22;68680;50.764;6.120;2023-09-19T10:16:46;17.00;95.40
79049;DHT22;68680;50.764;6.120;2023-09-19T10:19:15;17.00;96.20
79049;DHT22;68680;50.764;6.120;2023-09-19T10:21:46;17.10;94.30
79049;DHT22;68680;50.764;6.120;2023-09-19T10:24:14;17.10;93.90
79049;DHT22;68680;50.764;6.120;2023-09-19T10:26:41;17.00;93.20
79049;DHT22;68680;50.764;6.120;2023-09-19T10:29:07;17.00;92.40
79049;DHT22;68680;50.764;6.120;2023-09-19T10:31:36;16.90;93.20
79049;DHT22;68680;50.764;6.120;2023-09-19T10:34:06;16.90;92.00
79049;DHT22;68680;50.764;6.120;2023-09-19T10:36:33;17.00;91.60
79049;DHT22;68680;50.764;6.120;2023-09-19T10:39:02;17.10;91.10
79049;DHT22;68680;50.764;6.120;2023-09-19T10:41:30;17.20;91.70
79049;DHT22;68680;50.764;6.120;2023-09-19T10:43:58;17.30;91.20
79049;DHT22;68680;50.764;6.120;2023-09-19T10:46:24;17.20;90.50
79049;DHT22;68680;50.764;6.120;2023-09-19T10:48:50;17.30;89.80
79049;DHT22;68680;50.764;6.120;2023-09-19T10:51:21;17.20;90.40
79049;DHT22;68680;50.764;6.120;2023-09-19T10:53:51;17.20;91.70
79049;DHT22;68680;50.764;6.120;2023-09-19T10:56:23;17.30;91.30
79049;DHT22;68680;50.764;6.120;2023-09-19T10:58:51;17.40;91.50
79049;DHT22;68680;50.764;6.120;2023-09-19T11:01:17;17.50;90.40
79049;DHT22;68680;50.764;6.120;2023-09-19T11:03:43;17.50;91.10
79049;DHT22;68680;50.764;6.120;2023-09-19T11:06:11;17.50;90.30
79049;DHT22;68680;50.764;6.120;2023-09-19T11:08:56;17.50;88.50
79049;DHT22;68680;50.764;6.120;2023-09-19T11:11:39;17.30;87.00
79049;DHT22;68680;50.764;6.120;2023-09-19T11:14:29;17.20;87.00
79049;DHT22;68680;50.764;6.120;2023-09-19T11:20:20;17.40;89.90
79049;DHT22;68680;50.764;6.120;2023-09-19T11:23:17;17.40;88.50
79049;DHT22;68680;50.764;6.120;2023-09-19T11:25:45;17.50;88.90
79049;DHT22;68680;50.764;6.120;2023-09-19T11:28:33;17.60;89.30
79049;DHT22;68680;50.764;6.120;2023-09-19T11:34:37;17.80;89.70
79049;DHT22;68680;50.764;6.120;2023-09-19T11:40:26;17.80;87.30
79049;DHT22;68680;50.764;6.120;2023-09-19T11:42:52;17.80;89.60
79049;DHT22;68680;50.764;6.120;2023-09-19T11:48:32;18.00;86.90
79049;DHT22;68680;50.764;6.120;2023-09-19T11:50:58;18.10;85.70
79049;DHT22;68680;50.764;6.120;2023-09-19T11:53:24;18.10;84.00
79049;DHT22;68680;50.764;6.120;2023-09-19T11:55:58;18.10;86.70
79049;DHT22;68680;50.764;6.120;2023-09-19T11:58:25;18.10;80.60
79049;DHT22;68680;50.764;6.120;2023-09-19T12:00:54;18.30;82.30
79049;DHT22;68680;50.764;6.120;2023-09-19T12:03:21;18.20;80.20
79049;DHT22;68680;50.764;6.120;2023-09-19T12:05:48;18.30;80.50
79049;DHT22;68680;50.764;6.120;2023-09-19T12:08:15;18.30;81.80
79049;DHT22;68680;50.764;6.120;2023-09-19T12:10:45;18.20;80.50
79049;DHT22;68680;50.764;6.120;2023-09-19T12:13:16;18.30;83.90
79049;DHT22;68680;50.764;6.120;2023-09-19T12:15:43;18.40;82.20
79049;DHT22;68680;50.764;6.120;2023-09-19T12:18:09;18.50;81.00
79049;DHT22;68680;50.764;6.120;2023-09-19T12:20:44;18.60;79.70
79049;DHT22;68680;50.764;6.120;2023-09-19T12:23:13;18.60;81.30
79049;DHT22;68680;50.764;6.120;2023-09-19T12:25:41;18.70;79.40
79049;DHT22;68680;50.764;6.120;2023-09-19T12:28:07;18.90;80.90
79049;DHT22;68680;50.764;6.120;2023-09-19T12:30:34;18.80;76.80
79049;DHT22;68680;50.764;6.120;2023-09-19T12:33:00;18.80;79.10
79049;DHT22;68680;50.764;6.120;2023-09-19T12:35:27;18.80;78.00
79049;DHT22;68680;50.764;6.120;2023-09-19T12:37:53;18.70;79.30
79049;DHT22;68680;50.764;6.120;2023-09-19T12:40:21;18.70;79.50
79049;DHT22;68680;50.764;6.120;2023-09-19T12:42:48;18.80;77.80
79049;DHT22;68680;50.764;6.120;2023-09-19T12:45:15;19.00;77.30
79049;DHT22;68680;50.764;6.120;2023-09-19T12:48:17;19.00;76.10
79049;DHT22;68680;50.764;6.120;2023-09-19T12:50:58;19.00;80.20
79049;DHT22;68680;50.764;6.120;2023-09-19T12:53:26;19.20;77.40
79049;DHT22;68680;50.764;6.120;2023-09-19T12:55:58;19.40;76.40
79049;DHT22;68680;50.764;6.120;2023-09-19T12:58:25;19.50;76.80
79049;DHT22;68680;50.764;6.120;2023-09-19T13:00:51;19.30;76.90
79049;DHT22;68680;50.764;6.120;2023-09-19T13:03:25;19.20;75.60
79049;DHT22;68680;50.764;6.120;2023-09-19T13:05:53;19.20;75.90
79049;DHT22;68680;50.764;6.120;2023-09-19T13:08:21;19.40;75.50
79049;DHT22;68680;50.764;6.120;2023-09-19T13:11:19;19.40;75.50
79049;DHT22;68680;50.764;6.120;2023-09-19T13:13:46;19.70;75.00
79049;DHT22;68680;50.764;6.120;2023-09-19T13:16:12;19.70;75.70
79049;DHT22;68680;50.764;6.120;2023-09-19T13:18:44;19.70;73.70
79049;DHT22;68680;50.764;6.120;2023-09-19T13:21:12;19.50;74.10
79049;DHT22;68680;50.764;6.120;2023-09-19T13:23:38;19.60;73.80
79049;DHT22;68680;50.764;6.120;2023-09-19T13:26:04;19.60;74.00
79049;DHT22;68680;50.764;6.120;2023-09-19T13:28:30;19.50;74.00
79049;DHT22;68680;50.764;6.120;2023-09-19T13:30:55;19.50;76.20
79049;DHT22;68680;50.764;6.120;2023-09-19T13:33:21;19.60;75.40
79049;DHT22;68680;50.764;6.120;2023-09-19T13:35:48;20.00;74.40
79049;DHT22;68680;50.764;6.120;2023-09-19T13:38:14;20.70;70.60
79049;DHT22;68680;50.764;6.120;2023-09-19T13:40:40;21.30;68.90
79049;DHT22;68680;50.764;6.120;2023-09-19T13:43:06;20.90;69.50
79049;DHT22;68680;50.764;6.120;2023-09-19T13:45:32;20.80;70.00
79049;DHT22;68680;50.764;6.120;2023-09-19T13:47:58;20.60;70.30
79049;DHT22;68680;50.764;6.120;2023-09-19T13:50:24;20.30;71.70
79049;DHT22;68680;50.764;6.120;2023-09-19T13:52:51;19.90;73.80
79049;DHT22;68680;50.764;6.120;2023-09-19T13:55:17;20.30;70.90
79049;DHT22;68680;50.764;6.120;2023-09-19T13:57:43;20.40;69.50
79049;DHT22;68680;50.764;6.120;2023-09-19T14:00:09;20.40;69.60
79049;DHT22;68680;50.764;6.120;2023-09-19T14:02:36;20.50;70.30
79049;DHT22;68680;50.764;6.120;2023-09-19T14:05:01;20.50;69.20
79049;DHT22;68680;50.764;6.120;2023-09-19T14:07:27;21.20;67.80
79049;DHT22;68680;50.764;6.120;2023-09-19T14:09:54;22.40;63.10
79049;DHT22;68680;50.764;6.120;2023-09-19T14:12:20;22.30;62.70
79049;DHT22;68680;50.764;6.120;2023-09-19T14:14:46;21.90;65.20
79049;DHT22;68680;50.764;6.120;2023-09-19T14:17:12;21.70;66.00
79049;DHT22;68680;50.764;6.120;2023-09-19T14:19:37;22.50;62.30
79049;DHT22;68680;50.764;6.120;2023-09-19T14:22:06;22.90;60.20
79049;DHT22;68680;50.764;6.120;2023-09-19T14:24:32;22.90;60.20
79049;DHT22;68680;50.764;6.120;2023-09-19T14:26:59;23.30;58.40
79049;DHT22;68680;50.764;6.120;2023-09-19T14:29:25;21.90;63.30
79049;DHT22;68680;50.764;6.120;2023-09-19T14:31:50;21.00;64.90
79049;DHT22;68680;50.764;6.120;2023-09-19T14:34:16;20.80;66.40
79049;DHT22;68680;50.764;6.120;2023-09-19T14:36:42;21.10;66.30
79049;DHT22;68680;50.764;6.120;2023-09-19T14:39:08;20.40;68.40
79049;DHT22;68680;50.764;6.120;2023-09-19T14:41:34;20.10;69.60
79049;DHT22;68680;50.764;6.120;2023-09-19T14:44:02;20.10;68.00
79049;DHT22;68680;50.764;6.120;2023-09-19T14:46:28;19.70;70.00
79049;DHT22;68680;50.764;6.120;2023-09-19T14:48:55;19.30;71.20
79049;DHT22;68680;50.764;6.120;2023-09-19T14:51:21;19.40;72.00
79049;DHT22;68680;50.764;6.120;2023-09-19T14:53:47;19.50;73.20
79049;DHT22;68680;50.764;6.120;2023-09-19T14:56:13;20.00;70.90
79049;DHT22;68680;50.764;6.120;2023-09-19T14:58:39;20.10;70.30
79049;DHT22;68680;50.764;6.120;2023-09-19T15:01:07;19.90;71.50
79049;DHT22;68680;50.764;6.120;2023-09-19T15:03:34;19.50;72.90
79049;DHT22;68680;50.764;6.120;2023-09-19T15:06:01;19.20;74.00
79049;DHT22;68680;50.764;6.120;2023-09-19T15:08:27;19.00;74.60
79049;DHT22;68680;50.764;6.120;2023-09-19T15:10:53;18.90;75.50
79049;DHT22;68680;50.764;6.120;2023-09-19T15:13:18;18.90;77.10
79049;DHT22;68680;50.764;6.120;2023-09-19T15:15:44;18.90;76.20
79049;DHT22;68680;50.764;6.120;2023-09-19T15:18:11;18.90;77.10
79049;DHT22;68680;50.764;6.120;2023-09-19T15:20:42;18.90;78.80
79049;DHT22;68680;50.764;6.120;2023-09-19T15:23:09;18.90;78.50
79049;DHT22;68680;50.764;6.120;2023-09-19T15:25:34;18.80;77.90
79049;DHT22;68680;50.764;6.120;2023-09-19T15:28:00;18.80;76.00
79049;DHT22;68680;50.764;6.120;2023-09-19T15:30:26;18.70;77.70
79049;DHT22;68680;50.764;6.120;2023-09-19T15:32:52;18.70;77.40
79049;DHT22;68680;50.764;6.120;2023-09-19T15:35:19;18.60;78.10
79049;DHT22;68680;50.764;6.120;2023-09-19T15:37:44;18.70;77.70
79049;DHT22;68680;50.764;6.120;2023-09-19T15:40:10;18.70;76.90
79049;DHT22;68680;50.764;6.120;2023-09-19T15:42:36;18.70;77.50
79049;DHT22;68680;50.764;6.120;2023-09-19T15:45:02;18.60;77.50
79049;DHT22;68680;50.764;6.120;2023-09-19T15:47:28;18.50;78.40